createdAt,value
2023-05-10T00:00:25.262Z,77.84
2023-05-10T00:02:52.188Z,77.57
2023-05-10T00:05:18.900Z,77.65
2023-05-10T00:07:48.332Z,78.21
2023-05-10T00:10:15.220Z,78.39
2023-05-10T00:12:44.681Z,78.86
2023-05-10T00:15:12.134Z,78.86
2023-05-10T00:17:40.647Z,78.84
2023-05-10T00:20:07.832Z,78.96
2023-05-10T00:22:34.504Z,79.63
2023-05-10T00:25:01.132Z,79.83
2023-05-10T00:27:27.751Z,80.37
2023-05-10T00:29:54.476Z,80.12
2023-05-10T00:32:21.770Z,79.90
2023-05-10T00:34:48.590Z,79.82
2023-05-10T00:37:15.225Z,79.89
2023-05-10T00:39:41.760Z,78.40
2023-05-10T00:42:08.427Z,78.29
2023-05-10T00:44:35.060Z,79.23
2023-05-10T00:47:01.814Z,79.93
2023-05-10T00:49:29.477Z,80.01
2023-05-10T00:51:56.504Z,80.29
2023-05-10T00:54:23.198Z,80.58
2023-05-10T00:56:50.447Z,80.04
2023-05-10T00:59:18.832Z,78.91
2023-05-10T01:01:46.830Z,78.97
2023-05-10T01:04:14.467Z,79.89
2023-05-10T01:06:42.531Z,79.14
2023-05-10T01:09:09.610Z,80.42
2023-05-10T01:11:37.810Z,80.82
2023-05-10T01:14:05.113Z,81.42
2023-05-10T01:16:43.398Z,81.80
2023-05-10T01:19:30.609Z,81.07
2023-05-10T01:22:00.457Z,81.88
2023-05-10T01:24:30.210Z,82.41
2023-05-10T01:27:18.090Z,83.04
2023-05-10T01:30:21.855Z,83.33
2023-05-10T01:33:10.283Z,83.77
2023-05-10T01:35:42.780Z,83.69
2023-05-10T01:38:20.265Z,83.12
2023-05-10T01:41:04.757Z,82.80
2023-05-10T01:43:57.159Z,83.22
2023-05-10T01:46:38.275Z,83.26
2023-05-10T01:49:12.752Z,82.88
2023-05-10T01:51:45.934Z,83.51
2023-05-10T01:54:14.644Z,83.46
2023-05-10T01:56:43.117Z,83.18
2023-05-10T01:59:16.677Z,82.77
2023-05-10T02:01:45.188Z,82.68
2023-05-10T02:04:15.462Z,83.06
2023-05-10T02:06:43.602Z,83.99
2023-05-10T02:09:13.009Z,84.07
2023-05-10T02:11:42.699Z,84.15
2023-05-10T02:14:12.118Z,83.79
2023-05-10T02:16:40.493Z,83.18
2023-05-10T02:19:09.605Z,82.46
2023-05-10T02:21:36.977Z,82.87
2023-05-10T02:24:05.340Z,83.03
2023-05-10T02:26:35.146Z,83.14
2023-05-10T02:29:04.449Z,82.58
2023-05-10T02:31:36.315Z,82.23
2023-05-10T02:34:03.966Z,82.38
2023-05-10T02:36:31.221Z,82.30
2023-05-10T02:38:59.180Z,82.75
2023-05-10T02:41:27.513Z,82.50
2023-05-10T02:43:58.353Z,82.10
2023-05-10T02:46:25.141Z,81.29
2023-05-10T02:48:51.836Z,81.17
2023-05-10T02:51:20.233Z,81.36
2023-05-10T02:53:49.295Z,81.58
2023-05-10T02:56:24.763Z,81.39
2023-05-10T02:58:51.452Z,81.06
2023-05-10T03:01:18.246Z,81.12
2023-05-10T03:03:44.906Z,80.94
2023-05-10T03:06:11.565Z,81.58
2023-05-10T03:08:38.619Z,81.70
2023-05-10T03:11:33.451Z,82.82
2023-05-10T03:14:18.721Z,82.89
2023-05-10T03:16:58.543Z,82.38
2023-05-10T03:19:37.211Z,82.36
2023-05-10T03:22:08.680Z,82.73
2023-05-10T03:24:37.801Z,82.38
2023-05-10T03:27:05.489Z,82.24
2023-05-10T03:29:33.150Z,81.66
2023-05-10T03:32:02.557Z,81.01
2023-05-10T03:34:32.536Z,80.75
2023-05-10T03:36:59.259Z,80.57
2023-05-10T03:39:25.996Z,80.39
2023-05-10T03:41:52.584Z,80.03
2023-05-10T03:44:19.343Z,80.63
2023-05-10T03:46:46.109Z,80.80
2023-05-10T03:49:13.064Z,81.12
2023-05-10T03:51:39.819Z,80.67
2023-05-10T03:54:06.490Z,80.63
2023-05-10T03:56:33.594Z,80.48
2023-05-10T03:59:00.419Z,80.56
2023-05-10T04:01:27.075Z,80.73
2023-05-10T04:03:53.836Z,80.26
2023-05-10T04:06:20.601Z,80.55
2023-05-10T04:08:47.256Z,80.67
2023-05-10T04:11:14.743Z,81.40
2023-05-10T04:13:41.359Z,80.96
2023-05-10T04:16:08.084Z,81.29
2023-05-10T04:18:34.707Z,81.51
2023-05-10T04:21:01.831Z,81.21
2023-05-10T04:23:28.872Z,81.13
2023-05-10T04:26:02.782Z,80.89
2023-05-10T04:28:29.479Z,80.59
2023-05-10T04:31:09.641Z,80.21
2023-05-10T04:33:36.922Z,80.25
2023-05-10T04:36:04.714Z,79.96
2023-05-10T04:38:31.538Z,79.78
2023-05-10T04:41:12.160Z,79.75
2023-05-10T04:43:39.614Z,79.28
2023-05-10T04:46:07.140Z,78.71
2023-05-10T04:48:34.058Z,78.57
2023-05-10T04:51:00.789Z,78.80
2023-05-10T04:53:27.679Z,78.67
2023-05-10T04:55:54.311Z,78.65
2023-05-10T04:58:23.255Z,78.74
2023-05-10T05:00:50.025Z,78.54
2023-05-10T05:03:16.814Z,78.50
2023-05-10T05:05:44.325Z,78.84
2023-05-10T05:08:10.946Z,78.87
2023-05-10T05:10:37.676Z,78.26
2023-05-10T05:13:04.267Z,77.72
2023-05-10T05:15:31.790Z,77.16
2023-05-10T05:18:01.364Z,77.13
2023-05-10T05:20:28.004Z,76.66
2023-05-10T05:22:54.664Z,76.20
2023-05-10T05:25:21.290Z,76.02
2023-05-10T05:27:47.935Z,75.40
2023-05-10T05:30:14.683Z,75.03
2023-05-10T05:32:41.429Z,74.57
2023-05-10T05:35:08.553Z,74.26
2023-05-10T05:37:35.313Z,73.75
2023-05-10T05:40:02.821Z,73.51
2023-05-10T05:42:29.452Z,73.28
2023-05-10T05:44:56.041Z,72.71
2023-05-10T05:47:22.792Z,72.17
2023-05-10T05:49:49.457Z,72.20
2023-05-10T05:52:16.215Z,71.88
2023-05-10T05:54:42.858Z,70.90
2023-05-10T05:57:10.013Z,71.15
2023-05-10T05:59:36.811Z,70.83
2023-05-10T06:02:03.516Z,70.36
2023-05-10T06:04:30.174Z,70.35
2023-05-10T06:06:56.817Z,70.15
2023-05-10T06:09:25.547Z,70.42
2023-05-10T06:11:52.185Z,70.28
2023-05-10T06:14:21.040Z,70.02
2023-05-10T06:16:47.790Z,69.46
2023-05-10T06:19:14.414Z,69.06
2023-05-10T06:21:41.029Z,68.90
2023-05-10T06:24:07.890Z,68.62
2023-05-10T06:26:34.630Z,68.49
2023-05-10T06:29:01.208Z,68.64
2023-05-10T06:31:27.915Z,67.91
2023-05-10T06:33:56.638Z,67.69
2023-05-10T06:36:27.588Z,67.52
2023-05-10T06:38:54.410Z,67.02
2023-05-10T06:41:23.974Z,67.12
2023-05-10T06:43:51.277Z,66.76
2023-05-10T06:46:20.626Z,65.88
2023-05-10T06:48:47.382Z,65.74
2023-05-10T06:51:13.918Z,65.40
2023-05-10T06:53:43.273Z,65.19
2023-05-10T06:56:09.730Z,64.25
2023-05-10T06:58:36.196Z,64.27
2023-05-10T07:01:03.283Z,62.60
2023-05-10T07:03:33.130Z,63.27
2023-05-10T07:06:07.810Z,62.82
2023-05-10T07:08:37.487Z,62.19
2023-05-10T07:11:05.183Z,61.52
2023-05-10T07:13:35.315Z,60.55
2023-05-10T07:16:03.078Z,58.23
2023-05-10T07:18:29.808Z,57.19
2023-05-10T07:20:57.639Z,58.59
2023-05-10T07:23:24.310Z,57.84
2023-05-10T07:25:53.269Z,58.19
2023-05-10T07:28:20.093Z,57.46
2023-05-10T07:30:46.817Z,57.62
2023-05-10T07:33:14.582Z,56.98
2023-05-10T07:35:41.081Z,57.03
2023-05-10T07:38:07.652Z,56.65
2023-05-10T07:40:34.251Z,57.11
2023-05-10T07:43:03.848Z,57.00
2023-05-10T07:45:30.409Z,56.43
2023-05-10T07:47:57.019Z,55.40
2023-05-10T07:50:24.352Z,54.15
2023-05-10T07:52:51.060Z,55.70
2023-05-10T07:55:19.283Z,55.23
2023-05-10T07:57:45.847Z,53.78
2023-05-10T08:00:14.384Z,52.79
2023-05-10T08:02:41.636Z,52.29
2023-05-10T08:05:08.302Z,52.08
2023-05-10T08:07:34.856Z,51.40
2023-05-10T08:10:01.407Z,52.18
2023-05-10T08:12:27.833Z,52.59
2023-05-10T08:14:54.402Z,52.11
2023-05-10T08:17:22.103Z,51.25
2023-05-10T08:19:51.291Z,50.11
2023-05-10T08:22:18.035Z,50.54
2023-05-10T08:24:47.295Z,51.02
2023-05-10T08:27:13.750Z,50.74
2023-05-10T08:29:49.462Z,50.80
2023-05-10T08:32:16.755Z,51.03
2023-05-10T08:34:43.302Z,50.35
2023-05-10T08:37:09.784Z,50.14
2023-05-10T08:39:36.723Z,50.17
2023-05-10T08:42:04.940Z,50.31
2023-05-10T08:44:40.192Z,50.15
2023-05-10T08:47:08.153Z,48.98
2023-05-10T08:49:35.814Z,49.41
2023-05-10T08:52:06.959Z,49.40
2023-05-10T08:54:34.331Z,49.10
2023-05-10T08:57:01.375Z,48.92
2023-05-10T08:59:28.331Z,48.36
2023-05-10T09:01:56.861Z,48.76
2023-05-10T09:04:23.991Z,48.58
2023-05-10T09:06:50.874Z,48.20
2023-05-10T09:09:18.256Z,48.04
2023-05-10T09:11:45.701Z,48.18
2023-05-10T09:14:13.634Z,47.22
2023-05-10T09:16:41.073Z,46.67
2023-05-10T09:19:10.723Z,46.19
2023-05-10T09:21:40.197Z,45.17
2023-05-10T09:24:08.203Z,46.27
2023-05-10T09:26:45.294Z,46.25
2023-05-10T09:29:23.284Z,45.21
2023-05-10T09:31:55.788Z,100.00
2023-05-10T09:34:29.553Z,100.00
2023-05-10T09:37:01.769Z,100.00
2023-05-10T09:39:33.112Z,45.21
2023-05-10T09:42:00.790Z,41.32
2023-05-10T09:44:27.648Z,42.38
2023-05-10T09:46:54.196Z,42.12
2023-05-10T09:51:48.749Z,42.77
2023-05-10T09:54:16.689Z,42.17
2023-05-10T09:56:43.558Z,42.06
2023-05-10T09:59:13.587Z,42.01
2023-05-10T10:01:40.407Z,40.98
2023-05-10T10:04:08.414Z,40.81
2023-05-10T10:06:41.052Z,40.99
2023-05-10T10:09:08.034Z,40.78
2023-05-10T10:11:39.136Z,41.17
2023-05-10T10:14:06.345Z,41.07
2023-05-10T10:16:33.397Z,40.44
2023-05-10T10:19:00.069Z,40.15
2023-05-10T10:21:26.725Z,40.02
2023-05-10T10:23:54.115Z,39.22
2023-05-10T10:26:22.142Z,38.68
2023-05-10T10:29:00.574Z,37.51
2023-05-10T10:31:35.861Z,37.06
2023-05-10T10:34:03.061Z,36.36
2023-05-10T10:36:30.097Z,35.93
2023-05-10T10:39:00.276Z,36.56
2023-05-10T10:41:32.059Z,36.21
2023-05-10T10:44:31.874Z,36.02
2023-05-10T10:47:15.433Z,36.42
2023-05-10T10:49:44.852Z,37.42
2023-05-10T10:52:16.917Z,38.40
2023-05-10T10:54:51.118Z,37.61
2023-05-10T10:57:19.518Z,37.34
2023-05-10T10:59:46.595Z,37.12
2023-05-10T11:02:43.138Z,36.22
2023-05-10T11:05:25.749Z,36.14
2023-05-10T11:07:53.640Z,35.83
2023-05-10T11:10:23.698Z,35.81
2023-05-10T11:13:11.492Z,35.23
2023-05-10T11:15:41.657Z,36.41
2023-05-10T11:18:18.884Z,36.46
2023-05-10T11:20:47.734Z,36.39
2023-05-10T11:23:16.842Z,37.62
2023-05-10T11:25:45.072Z,37.59
2023-05-10T11:28:14.427Z,37.04
2023-05-10T11:30:42.025Z,36.53
2023-05-10T11:33:09.378Z,35.93
2023-05-10T11:35:43.424Z,36.16
2023-05-10T11:38:10.971Z,36.66
2023-05-10T11:40:38.408Z,35.79
2023-05-10T11:43:05.480Z,35.94
2023-05-10T11:45:35.395Z,36.18
2023-05-10T11:48:02.793Z,36.42
2023-05-10T11:50:29.705Z,36.86
2023-05-10T11:52:56.886Z,37.21
2023-05-10T11:55:23.577Z,37.14
2023-05-10T11:57:52.881Z,37.74
2023-05-10T12:00:19.691Z,37.39
2023-05-10T12:02:46.676Z,37.03
2023-05-10T12:05:13.257Z,36.32
2023-05-10T12:07:39.780Z,36.32
2023-05-10T12:10:16.607Z,37.21
2023-05-10T12:12:44.523Z,37.38
2023-05-10T12:15:24.551Z,36.99
2023-05-10T12:17:51.545Z,37.02
2023-05-10T12:20:20.025Z,37.36
2023-05-10T12:22:54.321Z,37.90
2023-05-10T12:25:23.176Z,37.83
2023-05-10T12:27:54.685Z,37.73
2023-05-10T12:30:24.612Z,37.98
2023-05-10T12:32:52.553Z,38.33
2023-05-10T12:35:22.906Z,38.83
2023-05-10T12:37:52.083Z,38.64
2023-05-10T12:40:18.786Z,38.63
2023-05-10T12:42:46.090Z,38.06
2023-05-10T12:45:12.615Z,37.90
2023-05-10T12:47:40.789Z,37.86
2023-05-10T12:50:09.031Z,37.35
2023-05-10T12:52:35.770Z,38.02
2023-05-10T12:55:02.653Z,38.21
2023-05-10T12:57:29.356Z,38.88
2023-05-10T12:59:56.165Z,37.65
2023-05-10T13:02:24.111Z,39.10
2023-05-10T13:04:51.185Z,38.93
2023-05-10T13:07:17.859Z,39.57
2023-05-10T13:09:44.466Z,39.51
2023-05-10T13:12:11.259Z,39.60
2023-05-10T13:14:37.978Z,40.02
2023-05-10T13:17:04.535Z,38.35
2023-05-10T13:19:31.205Z,37.78
2023-05-10T13:21:57.837Z,37.87
2023-05-10T13:24:24.373Z,36.88
2023-05-10T13:26:50.957Z,37.08
2023-05-10T13:29:19.225Z,37.43
2023-05-10T13:31:46.039Z,37.16
2023-05-10T13:34:12.552Z,37.15
2023-05-10T13:36:39.178Z,37.17
2023-05-10T13:39:06.408Z,37.05
2023-05-10T13:41:33.131Z,37.27
2023-05-10T13:43:59.670Z,37.39
2023-05-10T13:46:26.152Z,37.87
2023-05-10T13:48:52.755Z,38.02
2023-05-10T13:51:19.305Z,38.39
2023-05-10T13:53:46.000Z,38.39
2023-05-10T13:56:12.589Z,38.74
2023-05-10T13:58:39.173Z,38.81
2023-05-10T14:01:06.012Z,38.87
2023-05-10T14:03:33.658Z,38.83
2023-05-10T14:06:00.405Z,38.33
2023-05-10T14:08:28.138Z,38.68
2023-05-10T14:10:54.853Z,39.02
2023-05-10T14:13:21.397Z,39.74
2023-05-10T14:15:47.957Z,39.94
2023-05-10T14:18:14.454Z,40.10
2023-05-10T14:20:40.969Z,40.32
2023-05-10T14:23:08.405Z,40.69
2023-05-10T14:25:36.813Z,39.92
2023-05-10T14:28:03.379Z,40.27
2023-05-10T14:30:30.027Z,40.66
2023-05-10T14:32:56.681Z,40.65
2023-05-10T14:35:23.507Z,40.36
2023-05-10T14:37:50.431Z,39.10
2023-05-10T14:40:18.232Z,38.97
2023-05-10T14:42:45.114Z,39.90
2023-05-10T14:45:12.176Z,39.61
2023-05-10T14:47:38.703Z,39.80
2023-05-10T14:50:05.504Z,40.02
2023-05-10T14:52:34.268Z,39.48
2023-05-10T14:55:02.415Z,39.92
2023-05-10T14:57:31.066Z,39.88
2023-05-10T14:59:58.082Z,39.46
2023-05-10T15:02:25.154Z,38.81
2023-05-10T15:04:52.491Z,39.23
2023-05-10T15:07:19.443Z,39.52
2023-05-10T15:09:46.205Z,39.64
2023-05-10T15:12:12.687Z,39.61
2023-05-10T15:14:39.259Z,39.75
2023-05-10T15:17:07.400Z,40.15
2023-05-10T15:19:34.411Z,40.28
2023-05-10T15:22:00.918Z,40.24
2023-05-10T15:24:27.507Z,40.45
2023-05-10T15:26:54.994Z,40.46
2023-05-10T15:29:21.777Z,40.42
2023-05-10T15:31:49.085Z,40.77
2023-05-10T15:34:15.902Z,40.94
2023-05-10T15:36:42.526Z,40.83
2023-05-10T15:39:10.220Z,40.96
2023-05-10T15:41:38.000Z,41.09
2023-05-10T15:44:04.515Z,41.52
2023-05-10T15:46:31.467Z,41.14
2023-05-10T15:48:59.202Z,41.07
2023-05-10T15:51:28.593Z,41.31
2023-05-10T15:54:05.924Z,41.35
2023-05-10T15:56:37.025Z,41.32
2023-05-10T15:59:04.078Z,41.25
2023-05-10T16:01:31.421Z,41.68
2023-05-10T16:03:58.178Z,41.39
2023-05-10T16:06:24.697Z,41.51
2023-05-10T16:08:52.915Z,41.63
2023-05-10T16:11:21.641Z,41.76
2023-05-10T16:13:48.386Z,42.54
2023-05-10T16:16:14.926Z,42.66
2023-05-10T16:18:41.842Z,42.85
2023-05-10T16:21:08.388Z,42.76
2023-05-10T16:23:34.998Z,43.30
2023-05-10T16:26:01.480Z,43.28
2023-05-10T16:28:28.099Z,43.40
2023-05-10T16:30:54.852Z,43.90
2023-05-10T16:33:21.505Z,44.40
2023-05-10T16:35:48.145Z,44.36
2023-05-10T16:38:15.059Z,44.43
2023-05-10T16:40:41.603Z,45.33
2023-05-10T16:43:08.259Z,45.46
2023-05-10T16:45:35.096Z,46.53
2023-05-10T16:48:01.860Z,46.61
2023-05-10T16:50:28.393Z,46.64
2023-05-10T16:52:55.053Z,47.12
2023-05-10T16:55:22.901Z,47.13
2023-05-10T16:57:50.775Z,47.09
2023-05-10T17:00:17.474Z,47.38
2023-05-10T17:02:44.037Z,47.62
2023-05-10T17:05:10.544Z,47.90
2023-05-10T17:07:37.033Z,47.85
2023-05-10T17:10:03.619Z,47.75
2023-05-10T17:12:30.464Z,49.20
2023-05-10T17:14:57.564Z,49.37
2023-05-10T17:17:24.153Z,50.13
2023-05-10T17:19:51.197Z,50.51
2023-05-10T17:22:17.733Z,51.22
2023-05-10T17:24:45.124Z,51.77
2023-05-10T17:27:11.700Z,51.70
2023-05-10T17:29:38.311Z,53.00
2023-05-10T17:32:05.265Z,54.05
2023-05-10T17:34:31.799Z,54.92
2023-05-10T17:37:00.567Z,54.83
2023-05-10T17:39:27.120Z,54.78
2023-05-10T17:41:53.676Z,55.17
2023-05-10T17:44:20.281Z,56.81
2023-05-10T17:46:46.871Z,57.27
2023-05-10T17:49:13.431Z,57.10
2023-05-10T17:51:41.552Z,57.41
2023-05-10T17:54:08.084Z,57.61
2023-05-10T17:56:34.569Z,58.68
2023-05-10T17:59:01.059Z,59.04
2023-05-10T18:01:27.756Z,59.25
2023-05-10T18:03:54.359Z,58.96
2023-05-10T18:06:20.901Z,59.76
2023-05-10T18:08:47.441Z,60.30
2023-05-10T18:11:13.919Z,60.62
2023-05-10T18:13:40.577Z,61.47
2023-05-10T18:16:08.945Z,61.57
2023-05-10T18:18:35.437Z,62.04
2023-05-10T18:21:02.223Z,62.02
2023-05-10T18:23:28.810Z,62.36
2023-05-10T18:25:55.308Z,62.46
2023-05-10T18:28:21.873Z,62.50
2023-05-10T18:30:48.465Z,62.60
2023-05-10T18:33:14.953Z,62.95
2023-05-10T18:35:41.744Z,63.56
2023-05-10T18:38:09.830Z,63.42
2023-05-10T18:40:36.738Z,63.60
2023-05-10T18:43:03.571Z,63.44
2023-05-10T18:45:30.372Z,63.50
2023-05-10T18:47:57.182Z,63.71
2023-05-10T18:50:23.729Z,64.13
2023-05-10T18:52:50.715Z,63.75
2023-05-10T18:55:17.470Z,63.81
2023-05-10T18:57:45.208Z,63.20
2023-05-10T19:00:12.431Z,62.95
2023-05-10T19:02:39.770Z,62.98
2023-05-10T19:05:06.803Z,63.10
2023-05-10T19:07:33.830Z,62.82
2023-05-10T19:10:00.418Z,62.69
2023-05-10T19:12:26.899Z,63.30
2023-05-10T19:14:53.425Z,63.29
2023-05-10T19:17:20.234Z,63.32
2023-05-10T19:19:46.690Z,63.77
2023-05-10T19:22:13.731Z,63.76
2023-05-10T19:24:40.336Z,63.56
2023-05-10T19:27:06.904Z,63.75
2023-05-10T19:29:33.406Z,63.86
2023-05-10T19:32:00.850Z,64.15
2023-05-10T19:34:27.503Z,63.97
2023-05-10T19:36:54.624Z,64.82
2023-05-10T19:39:21.273Z,65.32
2023-05-10T19:41:50.023Z,65.18
2023-05-10T19:44:16.599Z,65.46
2023-05-10T19:46:43.177Z,65.90
2023-05-10T19:49:09.709Z,65.77
2023-05-10T19:51:36.206Z,65.79
2023-05-10T19:54:02.684Z,66.39
2023-05-10T19:56:29.730Z,66.12
2023-05-10T19:58:56.336Z,66.23
2023-05-10T20:01:22.955Z,66.73
2023-05-10T20:03:49.544Z,66.55
2023-05-10T20:06:16.130Z,66.94
2023-05-10T20:08:42.700Z,67.13
2023-05-10T20:11:09.230Z,67.37
2023-05-10T20:13:35.804Z,67.52
2023-05-10T20:16:03.827Z,68.39
2023-05-10T20:18:30.676Z,68.06
2023-05-10T20:20:58.402Z,68.54
2023-05-10T20:23:24.910Z,68.67
2023-05-10T20:25:51.580Z,68.83
2023-05-10T20:28:21.997Z,69.09
2023-05-10T20:30:50.603Z,69.71
2023-05-10T20:33:19.148Z,69.36
2023-05-10T20:35:45.709Z,68.77
2023-05-10T20:38:12.151Z,68.83
2023-05-10T20:40:38.625Z,69.07
2023-05-10T20:43:06.370Z,68.56
2023-05-10T20:45:32.878Z,69.41
2023-05-10T20:47:59.477Z,68.87
2023-05-10T20:50:25.993Z,69.37
2023-05-10T20:52:52.606Z,69.48
2023-05-10T20:55:19.595Z,69.14
2023-05-10T20:57:47.119Z,69.25
2023-05-10T21:00:14.296Z,68.88
2023-05-10T21:02:44.723Z,68.53
2023-05-10T21:05:11.283Z,68.50
2023-05-10T21:07:39.044Z,68.80
2023-05-10T21:10:07.439Z,69.26
2023-05-10T21:12:34.025Z,70.47
2023-05-10T21:15:00.508Z,70.93
2023-05-10T21:17:27.379Z,70.35
2023-05-10T21:19:54.207Z,70.40
2023-05-10T21:22:20.715Z,70.66
2023-05-10T21:24:47.410Z,70.63
2023-05-10T21:27:13.961Z,70.46
2023-05-10T21:29:40.574Z,70.54
2023-05-10T21:32:07.074Z,70.51
2023-05-10T21:34:33.818Z,70.60
2023-05-10T21:37:00.679Z,71.11
2023-05-10T21:39:27.161Z,71.18
2023-05-10T21:41:53.736Z,71.03
2023-05-10T21:44:20.252Z,70.95
2023-05-10T21:46:46.773Z,70.66
2023-05-10T21:49:13.335Z,70.66
2023-05-10T21:51:39.799Z,71.04
2023-05-10T21:54:06.326Z,71.12
2023-05-10T21:56:32.856Z,72.50
2023-05-10T21:58:59.309Z,72.54
2023-05-10T22:01:26.479Z,72.59
2023-05-10T22:03:53.092Z,72.52
2023-05-10T22:06:19.707Z,72.99
2023-05-10T22:08:46.187Z,73.15
2023-05-10T22:11:12.770Z,74.08
2023-05-10T22:13:39.224Z,73.78
2023-05-10T22:16:06.930Z,73.97
2023-05-10T22:18:33.407Z,74.08
2023-05-10T22:21:00.004Z,74.49
2023-05-10T22:23:26.548Z,74.90
2023-05-10T22:25:53.114Z,75.00
2023-05-10T22:28:20.273Z,74.47
2023-05-10T22:30:48.280Z,74.68
2023-05-10T22:33:14.839Z,74.21
2023-05-10T22:35:41.266Z,74.47
2023-05-10T22:38:07.780Z,74.77
2023-05-10T22:40:34.391Z,74.07
2023-05-10T22:43:01.094Z,74.05
2023-05-10T22:45:27.808Z,74.21
2023-05-10T22:47:54.605Z,74.48
2023-05-10T22:50:21.618Z,75.18
2023-05-10T22:52:48.361Z,75.52
2023-05-10T22:55:15.070Z,76.03
2023-05-10T22:57:41.647Z,77.13
2023-05-10T23:00:08.380Z,77.26
2023-05-10T23:02:34.976Z,77.13
2023-05-10T23:05:01.547Z,77.08
2023-05-10T23:07:28.170Z,77.20
2023-05-10T23:09:54.630Z,77.78
2023-05-10T23:12:21.170Z,78.66
2023-05-10T23:14:47.695Z,78.48
2023-05-10T23:17:14.250Z,78.29
2023-05-10T23:19:40.805Z,78.32
2023-05-10T23:22:07.727Z,77.58
2023-05-10T23:24:34.308Z,77.30
2023-05-10T23:27:00.754Z,77.49
2023-05-10T23:29:27.274Z,78.30
2023-05-10T23:31:53.876Z,78.57
2023-05-10T23:34:20.421Z,79.29
2023-05-10T23:36:46.993Z,79.75
2023-05-10T23:39:13.590Z,80.62
2023-05-10T23:41:40.069Z,80.82
2023-05-10T23:44:06.688Z,80.55
2023-05-10T23:46:33.167Z,79.67
2023-05-10T23:48:59.705Z,79.17
2023-05-10T23:51:26.234Z,78.71
2023-05-10T23:53:53.985Z,78.70
2023-05-10T23:56:20.521Z,79.69
2023-05-10T23:58:47.010Z,80.64
